sensor_id;sensor_type;location;lat;lon;timestamp;temperature;humidity
15184;DHT22;7693;49.266;7.104;2023-02-28T06:13:00;-1.60;99.90
15184;DHT22;7693;49.266;7.104;2023-02-28T06:15:28;-1.60;99.90
15184;DHT22;7693;49.266;7.104;2023-02-28T06:17:53;-1.60;99.90
15184;DHT22;7693;49.266;7.104;2023-02-28T06:20:19;-1.50;99.90
15184;DHT22;7693;49.266;7.104;2023-02-28T06:22:44;-1.50;99.90
15184;DHT22;7693;49.266;7.104;2023-02-28T06:25:10;-1.50;99.90
15184;DHT22;7693;49.266;7.104;2023-02-28T06:27:36;-1.40;99.90
15184;DHT22;7693;49.266;7.104;2023-02-28T06:30:02;-1.40;99.90
15184;DHT22;7693;49.266;7.104;2023-02-28T06:32:27;-1.30;99.90
15184;DHT22;7693;49.266;7.104;2023-02-28T06:34:53;-1.30;99.90
15184;DHT22;7693;49.266;7.104;2023-02-28T06:37:19;-1.30;99.90
15184;DHT22;7693;49.266;7.104;2023-02-28T06:39:44;-1.20;99.90
15184;DHT22;7693;49.266;7.104;2023-02-28T06:42:10;-1.20;99.90
15184;DHT22;7693;49.266;7.104;2023-02-28T06:44:36;-1.10;99.90
15184;DHT22;7693;49.266;7.104;2023-02-28T06:47:03;-1.10;99.90
15184;DHT22;7693;49.266;7.104;2023-02-28T06:49:30;-1.10;99.90
15184;DHT22;7693;49.266;7.104;2023-02-28T06:51:56;-1.00;99.90
15184;DHT22;7693;49.266;7.104;2023-02-28T06:54:22;-1.00;99.90
15184;DHT22;7693;49.266;7.104;2023-02-28T06:56:47;-1.00;99.90
15184;DHT22;7693;49.266;7.104;2023-02-28T06:59:13;-1.00;99.90
15184;DHT22;7693;49.266;7.104;2023-02-28T07:01:39;-1.00;99.90
15184;DHT22;7693;49.266;7.104;2023-02-28T07:04:06;-1.00;99.90
15184;DHT22;7693;49.266;7.104;2023-02-28T07:06:32;-1.00;99.90
15184;DHT22;7693;49.266;7.104;2023-02-28T07:08:58;-0.90;99.90
15184;DHT22;7693;49.266;7.104;2023-02-28T07:11:25;-0.90;99.90
15184;DHT22;7693;49.266;7.104;2023-02-28T07:13:53;-0.90;99.90
15184;DHT22;7693;49.266;7.104;2023-02-28T07:16:19;-0.80;99.90
15184;DHT22;7693;49.266;7.104;2023-02-28T07:18:45;-0.80;99.90
15184;DHT22;7693;49.266;7.104;2023-02-28T07:21:10;-0.70;99.90
15184;DHT22;7693;49.266;7.104;2023-02-28T07:23:37;-0.70;99.90
15184;DHT22;7693;49.266;7.104;2023-02-28T07:26:07;-0.60;99.90
15184;DHT22;7693;49.266;7.104;2023-02-28T07:28:33;-0.60;99.90
15184;DHT22;7693;49.266;7.104;2023-02-28T07:31:06;-0.50;99.90
15184;DHT22;7693;49.266;7.104;2023-02-28T07:33:33;-0.50;99.90
15184;DHT22;7693;49.266;7.104;2023-02-28T07:36:04;-0.40;99.90
15184;DHT22;7693;49.266;7.104;2023-02-28T07:38:30;-0.40;99.90
15184;DHT22;7693;49.266;7.104;2023-02-28T07:40:56;-0.30;99.90
15184;DHT22;7693;49.266;7.104;2023-02-28T07:43:22;-0.20;99.90
15184;DHT22;7693;49.266;7.104;2023-02-28T07:45:47;-0.20;99.90
15184;DHT22;7693;49.266;7.104;2023-02-28T07:48:13;-0.10;99.90
15184;DHT22;7693;49.266;7.104;2023-02-28T07:50:38;0.00;99.90
15184;DHT22;7693;49.266;7.104;2023-02-28T07:53:04;0.10;99.90
15184;DHT22;7693;49.266;7.104;2023-02-28T07:55:29;0.10;99.90
15184;DHT22;7693;49.266;7.104;2023-02-28T07:57:57;0.20;99.90
15184;DHT22;7693;49.266;7.104;2023-02-28T08:00:25;0.30;99.90
15184;DHT22;7693;49.266;7.104;2023-02-28T08:02:51;0.30;99.90
15184;DHT22;7693;49.266;7.104;2023-02-28T08:05:16;0.40;99.90
15184;DHT22;7693;49.266;7.104;2023-02-28T08:07:42;0.40;99.90
15184;DHT22;7693;49.266;7.104;2023-02-28T08:10:08;0.50;99.90
15184;DHT22;7693;49.266;7.104;2023-02-28T08:12:35;0.50;99.90
15184;DHT22;7693;49.266;7.104;2023-02-28T08:15:01;0.60;99.90
15184;DHT22;7693;49.266;7.104;2023-02-28T08:17:26;0.60;99.90
15184;DHT22;7693;49.266;7.104;2023-02-28T08:19:52;0.70;99.90
15184;DHT22;7693;49.266;7.104;2023-02-28T08:22:17;0.70;99.90
15184;DHT22;7693;49.266;7.104;2023-02-28T08:24:43;0.70;99.90
15184;DHT22;7693;49.266;7.104;2023-02-28T08:27:09;0.60;99.90
15184;DHT22;7693;49.266;7.104;2023-02-28T08:29:37;0.60;99.90
15184;DHT22;7693;49.266;7.104;2023-02-28T08:32:03;0.50;99.90
15184;DHT22;7693;49.266;7.104;2023-02-28T08:34:29;0.40;99.90
15184;DHT22;7693;49.266;7.104;2023-02-28T08:36:54;0.40;99.90
15184;DHT22;7693;49.266;7.104;2023-02-28T08:39:20;0.40;99.90
15184;DHT22;7693;49.266;7.104;2023-02-28T08:41:46;0.40;99.90
15184;DHT22;7693;49.266;7.104;2023-02-28T08:44:12;0.40;99.90
15184;DHT22;7693;49.266;7.104;2023-02-28T08:46:38;0.40;99.90
15184;DHT22;7693;49.266;7.104;2023-02-28T08:49:04;0.40;99.90
15184;DHT22;7693;49.266;7.104;2023-02-28T08:51:31;0.50;99.90
15184;DHT22;7693;49.266;7.104;2023-02-28T08:53:59;0.40;99.90
15184;DHT22;7693;49.266;7.104;2023-02-28T08:56:26;0.50;99.90
15184;DHT22;7693;49.266;7.104;2023-02-28T08:58:53;0.50;99.90
15184;DHT22;7693;49.266;7.104;2023-02-28T09:01:23;0.70;99.90
15184;DHT22;7693;49.266;7.104;2023-02-28T09:03:50;0.80;99.90
15184;DHT22;7693;49.266;7.104;2023-02-28T09:06:16;0.90;99.90
15184;DHT22;7693;49.266;7.104;2023-02-28T09:08:42;1.10;99.90
15184;DHT22;7693;49.266;7.104;2023-02-28T09:11:09;1.20;99.90
15184;DHT22;7693;49.266;7.104;2023-02-28T09:13:35;1.20;99.90
15184;DHT22;7693;49.266;7.104;2023-02-28T09:16:02;1.20;99.90
15184;DHT22;7693;49.266;7.104;2023-02-28T09:18:29;1.20;99.90
15184;DHT22;7693;49.266;7.104;2023-02-28T09:20:55;1.20;99.90
15184;DHT22;7693;49.266;7.104;2023-02-28T09:23:20;1.30;99.90
15184;DHT22;7693;49.266;7.104;2023-02-28T09:25:48;1.30;99.90
15184;DHT22;7693;49.266;7.104;2023-02-28T09:28:14;1.30;99.90
15184;DHT22;7693;49.266;7.104;2023-02-28T09:30:45;1.40;99.90
15184;DHT22;7693;49.266;7.104;2023-02-28T09:33:13;1.40;99.90
15184;DHT22;7693;49.266;7.104;2023-02-28T09:35:39;1.50;99.90
15184;DHT22;7693;49.266;7.104;2023-02-28T09:38:05;1.60;99.90
15184;DHT22;7693;49.266;7.104;2023-02-28T09:40:31;1.80;99.90
15184;DHT22;7693;49.266;7.104;2023-02-28T09:42:58;1.90;99.90
15184;DHT22;7693;49.266;7.104;2023-02-28T09:45:37;2.00;99.90
15184;DHT22;7693;49.266;7.104;2023-02-28T09:48:11;2.10;99.90
15184;DHT22;7693;49.266;7.104;2023-02-28T09:50:38;2.20;99.90
15184;DHT22;7693;49.266;7.104;2023-02-28T09:53:19;2.30;99.90
15184;DHT22;7693;49.266;7.104;2023-02-28T09:55:51;2.40;99.90
15184;DHT22;7693;49.266;7.104;2023-02-28T10:00:56;2.50;99.90
15184;DHT22;7693;49.266;7.104;2023-02-28T10:03:25;2.50;99.90
15184;DHT22;7693;49.266;7.104;2023-02-28T10:06:13;2.60;99.90
15184;DHT22;7693;49.266;7.104;2023-02-28T10:09:11;2.80;99.90
15184;DHT22;7693;49.266;7.104;2023-02-28T10:11:40;3.00;99.90
15184;DHT22;7693;49.266;7.104;2023-02-28T10:14:30;3.00;99.90
15184;DHT22;7693;49.266;7.104;2023-02-28T10:17:10;2.90;99.90
15184;DHT22;7693;49.266;7.104;2023-02-28T10:19:52;2.80;99.90
15184;DHT22;7693;49.266;7.104;2023-02-28T10:22:27;2.70;99.90
15184;DHT22;7693;49.266;7.104;2023-02-28T10:24:55;2.60;99.90
15184;DHT22;7693;49.266;7.104;2023-02-28T10:27:31;2.70;99.90
15184;DHT22;7693;49.266;7.104;2023-02-28T10:29:59;2.80;99.90
15184;DHT22;7693;49.266;7.104;2023-02-28T10:32:34;2.80;99.90
15184;DHT22;7693;49.266;7.104;2023-02-28T10:37:39;3.00;99.90
15184;DHT22;7693;49.266;7.104;2023-02-28T10:40:07;3.10;99.90
15184;DHT22;7693;49.266;7.104;2023-02-28T10:43:01;3.10;99.90
15184;DHT22;7693;49.266;7.104;2023-02-28T10:45:29;3.10;99.90
15184;DHT22;7693;49.266;7.104;2023-02-28T10:47:59;3.10;99.90
15184;DHT22;7693;49.266;7.104;2023-02-28T10:50:44;3.10;99.90
15184;DHT22;7693;49.266;7.104;2023-02-28T13:18:49;4.40;99.90
15184;DHT22;7693;49.266;7.104;2023-02-28T13:21:28;4.40;99.90
15184;DHT22;7693;49.266;7.104;2023-02-28T13:24:03;4.40;99.90
15184;DHT22;7693;49.266;7.104;2023-02-28T13:34:31;4.80;99.90
15184;DHT22;7693;49.266;7.104;2023-02-28T13:39:58;4.90;99.90
15184;DHT22;7693;49.266;7.104;2023-02-28T13:50:38;5.50;99.90
15184;DHT22;7693;49.266;7.104;2023-02-28T13:55:52;5.60;99.90
15184;DHT22;7693;49.266;7.104;2023-02-28T13:58:41;5.60;99.90
15184;DHT22;7693;49.266;7.104;2023-02-28T14:08:59;5.60;99.90
15184;DHT22;7693;49.266;7.104;2023-02-28T14:11:35;5.70;99.90
15184;DHT22;7693;49.266;7.104;2023-02-28T14:14:02;5.70;99.90
15184;DHT22;7693;49.266;7.104;2023-02-28T14:21:56;5.80;99.90
15184;DHT22;7693;49.266;7.104;2023-02-28T14:33:15;6.00;99.90
15184;DHT22;7693;49.266;7.104;2023-02-28T14:36:07;6.00;99.90
15184;DHT22;7693;49.266;7.104;2023-02-28T14:38:39;6.00;99.90
15184;DHT22;7693;49.266;7.104;2023-02-28T14:41:15;6.00;99.90
15184;DHT22;7693;49.266;7.104;2023-02-28T14:43:57;6.00;99.90
15184;DHT22;7693;49.266;7.104;2023-02-28T14:46:25;5.90;99.90
15184;DHT22;7693;49.266;7.104;2023-02-28T14:48:52;5.80;99.90
15184;DHT22;7693;49.266;7.104;2023-02-28T14:51:20;5.70;99.90
15184;DHT22;7693;49.266;7.104;2023-02-28T14:53:50;5.70;99.90
15184;DHT22;7693;49.266;7.104;2023-02-28T14:56:22;5.70;99.90
15184;DHT22;7693;49.266;7.104;2023-02-28T14:58:53;5.70;99.90
15184;DHT22;7693;49.266;7.104;2023-02-28T15:01:21;5.80;99.90
15184;DHT22;7693;49.266;7.104;2023-02-28T15:03:47;5.80;99.90
15184;DHT22;7693;49.266;7.104;2023-02-28T15:06:17;5.90;99.90
15184;DHT22;7693;49.266;7.104;2023-02-28T15:08:44;6.00;99.90
15184;DHT22;7693;49.266;7.104;2023-02-28T15:11:18;6.00;99.90
15184;DHT22;7693;49.266;7.104;2023-02-28T15:13:54;6.10;99.90
15184;DHT22;7693;49.266;7.104;2023-02-28T15:16:36;6.10;99.90
15184;DHT22;7693;49.266;7.104;2023-02-28T15:19:22;6.20;99.90
15184;DHT22;7693;49.266;7.104;2023-02-28T15:22:00;6.30;99.90
15184;DHT22;7693;49.266;7.104;2023-02-28T15:24:53;6.30;99.90
15184;DHT22;7693;49.266;7.104;2023-02-28T15:27:45;6.30;99.90
15184;DHT22;7693;49.266;7.104;2023-02-28T15:30:18;6.30;99.90
15184;DHT22;7693;49.266;7.104;2023-02-28T15:32:44;6.40;99.90
15184;DHT22;7693;49.266;7.104;2023-02-28T15:38:01;6.50;99.90
15184;DHT22;7693;49.266;7.104;2023-02-28T15:40:36;6.30;99.80
15184;DHT22;7693;49.266;7.104;2023-02-28T15:43:17;6.10;99.60
15184;DHT22;7693;49.266;7.104;2023-02-28T15:45:48;5.90;99.60
15184;DHT22;7693;49.266;7.104;2023-02-28T15:48:27;5.80;99.60
15184;DHT22;7693;49.266;7.104;2023-02-28T15:50:55;5.80;99.80
15184;DHT22;7693;49.266;7.104;2023-02-28T15:53:25;5.80;99.90
15184;DHT22;7693;49.266;7.104;2023-02-28T15:55:54;5.70;99.80
15184;DHT22;7693;49.266;7.104;2023-02-28T15:58:21;5.70;99.80
15184;DHT22;7693;49.266;7.104;2023-02-28T16:03:47;5.60;99.90
15184;DHT22;7693;49.266;7.104;2023-02-28T16:08:42;5.40;99.40
15184;DHT22;7693;49.266;7.104;2023-02-28T16:11:10;5.30;99.30
15184;DHT22;7693;49.266;7.104;2023-02-28T16:13:36;5.30;99.40
15184;DHT22;7693;49.266;7.104;2023-02-28T16:16:02;5.20;99.40
15184;DHT22;7693;49.266;7.104;2023-02-28T16:18:27;5.10;99.40
15184;DHT22;7693;49.266;7.104;2023-02-28T16:20:53;5.10;99.40
15184;DHT22;7693;49.266;7.104;2023-02-28T16:23:18;5.00;99.30
15184;DHT22;7693;49.266;7.104;2023-02-28T16:25:44;4.90;99.20
15184;DHT22;7693;49.266;7.104;2023-02-28T16:28:20;4.80;99.10
15184;DHT22;7693;49.266;7.104;2023-02-28T16:30:46;4.80;99.10
15184;DHT22;7693;49.266;7.104;2023-02-28T16:33:12;4.70;99.10
15184;DHT22;7693;49.266;7.104;2023-02-28T16:35:37;4.60;99.10
15184;DHT22;7693;49.266;7.104;2023-02-28T16:38:03;4.60;99.10
15184;DHT22;7693;49.266;7.104;2023-02-28T16:40:33;4.50;99.00
15184;DHT22;7693;49.266;7.104;2023-02-28T16:43:05;4.40;99.00
15184;DHT22;7693;49.266;7.104;2023-02-28T16:45:33;4.40;99.00
15184;DHT22;7693;49.266;7.104;2023-02-28T16:47:59;4.40;99.00
15184;DHT22;7693;49.266;7.104;2023-02-28T16:50:27;4.30;99.00
15184;DHT22;7693;49.266;7.104;2023-02-28T16:52:53;4.20;99.00
15184;DHT22;7693;49.266;7.104;2023-02-28T16:55:20;4.20;99.00
15184;DHT22;7693;49.266;7.104;2023-02-28T16:57:54;4.20;99.00
15184;DHT22;7693;49.266;7.104;2023-02-28T17:00:21;4.10;98.90
15184;DHT22;7693;49.266;7.104;2023-02-28T17:02:47;4.10;98.90
15184;DHT22;7693;49.266;7.104;2023-02-28T17:05:12;4.00;98.80
15184;DHT22;7693;49.266;7.104;2023-02-28T17:07:39;4.00;98.80
15184;DHT22;7693;49.266;7.104;2023-02-28T17:10:14;3.90;98.80
15184;DHT22;7693;49.266;7.104;2023-02-28T17:12:40;3.90;98.80
15184;DHT22;7693;49.266;7.104;2023-02-28T17:15:06;3.80;98.80
15184;DHT22;7693;49.266;7.104;2023-02-28T17:17:33;3.80;98.80
15184;DHT22;7693;49.266;7.104;2023-02-28T19:54:56;1.30;97.70
15184;DHT22;7693;49.266;7.104;2023-02-28T19:57:22;1.30;98.20
15184;DHT22;7693;49.266;7.104;2023-02-28T19:59:47;1.30;98.30
15184;DHT22;7693;49.266;7.104;2023-02-28T20:02:15;1.20;98.40
15184;DHT22;7693;49.266;7.104;2023-02-28T20:04:40;1.30;98.50
15184;DHT22;7693;49.266;7.104;2023-02-28T20:07:06;1.30;98.60
15184;DHT22;7693;49.266;7.104;2023-02-28T20:09:32;1.30;98.60
15184;DHT22;7693;49.266;7.104;2023-02-28T20:11:57;1.30;98.60
15184;DHT22;7693;49.266;7.104;2023-02-28T20:14:30;1.30;98.60
15184;DHT22;7693;49.266;7.104;2023-02-28T20:16:56;1.30;98.70
15184;DHT22;7693;49.266;7.104;2023-02-28T20:19:21;1.20;98.70
15184;DHT22;7693;49.266;7.104;2023-02-28T20:21:49;1.20;98.70
15184;DHT22;7693;49.266;7.104;2023-02-28T20:24:15;1.20;98.70
15184;DHT22;7693;49.266;7.104;2023-02-28T20:26:41;1.20;98.80
15184;DHT22;7693;49.266;7.104;2023-02-28T20:29:07;1.10;98.90
15184;DHT22;7693;49.266;7.104;2023-02-28T20:31:34;1.20;98.90
15184;DHT22;7693;49.266;7.104;2023-02-28T20:34:02;1.20;98.90
15184;DHT22;7693;49.266;7.104;2023-02-28T20:36:28;1.20;98.90
15184;DHT22;7693;49.266;7.104;2023-02-28T20:38:54;1.20;99.30
15184;DHT22;7693;49.266;7.104;2023-02-28T20:41:20;1.20;98.90
15184;DHT22;7693;49.266;7.104;2023-02-28T20:43:46;1.20;99.00
15184;DHT22;7693;49.266;7.104;2023-02-28T20:46:12;1.20;99.00
15184;DHT22;7693;49.266;7.104;2023-02-28T20:48:38;1.20;99.00
15184;DHT22;7693;49.266;7.104;2023-02-28T20:51:05;1.20;99.00
15184;DHT22;7693;49.266;7.104;2023-02-28T20:53:33;1.20;99.00
15184;DHT22;7693;49.266;7.104;2023-02-28T20:56:04;1.20;99.10
15184;DHT22;7693;49.266;7.104;2023-02-28T20:58:32;1.10;99.10
15184;DHT22;7693;49.266;7.104;2023-02-28T21:01:03;1.10;99.00
15184;DHT22;7693;49.266;7.104;2023-02-28T21:03:30;1.10;99.10
15184;DHT22;7693;49.266;7.104;2023-02-28T21:06:02;1.10;99.10
15184;DHT22;7693;49.266;7.104;2023-02-28T21:08:28;1.10;99.20
15184;DHT22;7693;49.266;7.104;2023-02-28T21:10:54;1.00;99.20
15184;DHT22;7693;49.266;7.104;2023-02-28T21:13:19;1.00;99.20
15184;DHT22;7693;49.266;7.104;2023-02-28T21:15:45;1.10;99.30
15184;DHT22;7693;49.266;7.104;2023-02-28T21:18:10;1.10;99.30
15184;DHT22;7693;49.266;7.104;2023-02-28T21:20:36;1.10;99.30
15184;DHT22;7693;49.266;7.104;2023-02-28T21:23:02;1.10;99.30
15184;DHT22;7693;49.266;7.104;2023-02-28T21:25:27;1.10;99.30
15184;DHT22;7693;49.266;7.104;2023-02-28T21:27:53;1.00;99.30
15184;DHT22;7693;49.266;7.104;2023-02-28T21:30:20;1.00;99.30
15184;DHT22;7693;49.266;7.104;2023-02-28T21:32:46;1.00;99.30
15184;DHT22;7693;49.266;7.104;2023-02-28T21:35:12;1.00;99.40
15184;DHT22;7693;49.266;7.104;2023-02-28T21:37:38;1.00;99.40
15184;DHT22;7693;49.266;7.104;2023-02-28T21:40:04;0.90;99.40
15184;DHT22;7693;49.266;7.104;2023-02-28T21:42:29;1.00;99.40
15184;DHT22;7693;49.266;7.104;2023-02-28T21:44:55;0.90;99.40
15184;DHT22;7693;49.266;7.104;2023-02-28T21:47:22;0.90;99.40
15184;DHT22;7693;49.266;7.104;2023-02-28T21:49:49;0.90;99.50
15184;DHT22;7693;49.266;7.104;2023-02-28T21:52:15;0.90;99.40
15184;DHT22;7693;49.266;7.104;2023-02-28T21:54:40;0.90;99.50
15184;DHT22;7693;49.266;7.104;2023-02-28T21:57:06;0.80;99.40
15184;DHT22;7693;49.266;7.104;2023-02-28T21:59:32;0.80;99.50
15184;DHT22;7693;49.266;7.104;2023-02-28T22:01:57;0.80;99.50
15184;DHT22;7693;49.266;7.104;2023-02-28T22:04:23;0.80;99.50
15184;DHT22;7693;49.266;7.104;2023-02-28T22:06:50;0.80;99.50
15184;DHT22;7693;49.266;7.104;2023-02-28T22:09:16;0.70;99.90
15184;DHT22;7693;49.266;7.104;2023-02-28T22:11:42;0.70;99.60
15184;DHT22;7693;49.266;7.104;2023-02-28T22:14:08;0.70;99.60
15184;DHT22;7693;49.266;7.104;2023-02-28T22:16:34;0.70;99.60
15184;DHT22;7693;49.266;7.104;2023-02-28T22:19:00;0.60;99.60
15184;DHT22;7693;49.266;7.104;2023-02-28T22:21:30;0.60;99.70
15184;DHT22;7693;49.266;7.104;2023-02-28T22:23:56;0.60;99.70
15184;DHT22;7693;49.266;7.104;2023-02-28T22:26:22;0.50;99.70
15184;DHT22;7693;49.266;7.104;2023-02-28T22:28:48;0.60;99.70
15184;DHT22;7693;49.266;7.104;2023-02-28T22:31:20;0.50;99.70
15184;DHT22;7693;49.266;7.104;2023-02-28T22:33:47;0.50;99.80
15184;DHT22;7693;49.266;7.104;2023-02-28T22:36:15;0.50;99.80
15184;DHT22;7693;49.266;7.104;2023-02-28T22:38:42;0.50;99.90
15184;DHT22;7693;49.266;7.104;2023-02-28T22:41:08;0.50;99.90
15184;DHT22;7693;49.266;7.104;2023-02-28T22:43:36;0.50;99.90
15184;DHT22;7693;49.266;7.104;2023-02-28T22:46:03;0.50;99.90
15184;DHT22;7693;49.266;7.104;2023-02-28T22:48:29;0.50;99.90
15184;DHT22;7693;49.266;7.104;2023-02-28T22:51:10;0.50;99.90
15184;DHT22;7693;49.266;7.104;2023-02-28T22:53:40;0.50;99.90
15184;DHT22;7693;49.266;7.104;2023-02-28T22:56:07;0.50;99.90
15184;DHT22;7693;49.266;7.104;2023-02-28T22:58:34;0.50;99.90
15184;DHT22;7693;49.266;7.104;2023-02-28T23:01:14;0.40;99.90
15184;DHT22;7693;49.266;7.104;2023-02-28T23:03:41;0.40;99.90
15184;DHT22;7693;49.266;7.104;2023-02-28T23:06:24;0.40;99.90
15184;DHT22;7693;49.266;7.104;2023-02-28T23:08:52;0.40;99.90
15184;DHT22;7693;49.266;7.104;2023-02-28T23:11:30;0.40;99.90
15184;DHT22;7693;49.266;7.104;2023-02-28T23:13:56;0.40;99.90
15184;DHT22;7693;49.266;7.104;2023-02-28T23:16:29;0.40;99.90
15184;DHT22;7693;49.266;7.104;2023-02-28T23:18:56;0.40;99.90
15184;DHT22;7693;49.266;7.104;2023-02-28T23:21:22;0.40;99.90
15184;DHT22;7693;49.266;7.104;2023-02-28T23:23:48;0.30;99.90
15184;DHT22;7693;49.266;7.104;2023-02-28T23:26:13;0.30;99.90
15184;DHT22;7693;49.266;7.104;2023-02-28T23:28:39;0.30;99.90
15184;DHT22;7693;49.266;7.104;2023-02-28T23:31:04;0.30;99.90
15184;DHT22;7693;49.266;7.104;2023-02-28T23:33:31;0.30;99.90
15184;DHT22;7693;49.266;7.104;2023-02-28T23:35:56;0.30;99.90
15184;DHT22;7693;49.266;7.104;2023-02-28T23:38:22;0.30;99.90
